KUGN/UGN METAR and TAF weather

Enter ICAO airport designator
Station Type Date Time Source
KUGN METAR 2019/08/22 04:55 UTC NOAA

KUGN 220455Z AUTO 31004KT 10SM BKN042 OVC050 21/16 A2999 RMK AO2 SLP144 T02060156 TSNO


Station Type Date Time Source
KUGN Decoded METAR 2019/08/22 04:55 UTC NOAA

Station name not available
Aug 22, 2019 - 12:55 AM EDT / 2019.08.22 0455 UTC
Wind: from the NW (310 degrees) at 5 MPH (4 KT):0
Visibility: 10 mile(s):0
Sky conditions: overcast
Temperature: 69.1 F (20.6 C)
Dew Point: 60.1 F (15.6 C)
Relative Humidity: 73%
Pressure (altimeter): 29.99 in. Hg (1015 hPa)
ob: KUGN 220455Z AUTO 31004KT 10SM BKN042 OVC050 21/16 A2999 RMK AO2 SLP144 T02060156 TSNO
cycle: 5

Station Type Date Time Source
KUGN TAF UTC NOAA

Error!

Example: see airport list